createdAt,value
2018-09-17T00:00:09.114Z,15.19
2018-09-17T00:05:05.891Z,15.21
2018-09-17T00:10:01.919Z,15.19
2018-09-17T00:14:58.455Z,15.14
2018-09-17T00:19:54.249Z,15.15
2018-09-17T00:24:50.109Z,15.18
2018-09-17T00:29:45.804Z,15.24
2018-09-17T00:34:41.429Z,15.10
2018-09-17T00:39:38.035Z,15.09
2018-09-17T00:44:34.804Z,14.97
2018-09-17T00:49:30.384Z,14.89
2018-09-17T00:54:26.439Z,15.00
2018-09-17T00:59:22.391Z,14.86
2018-09-17T01:04:19.351Z,14.66
2018-09-17T01:09:14.882Z,14.65
2018-09-17T01:14:11.552Z,14.55
2018-09-17T01:19:06.998Z,14.44
2018-09-17T01:24:02.628Z,14.55
2018-09-17T01:28:59.358Z,14.36
2018-09-17T01:33:54.846Z,14.28
2018-09-17T01:38:50.607Z,14.29
2018-09-17T01:43:47.551Z,14.58
2018-09-17T01:48:42.952Z,14.58
2018-09-17T01:53:39.903Z,14.54
2018-09-17T01:58:35.604Z,14.54
2018-09-17T02:03:32.128Z,14.48
2018-09-17T02:08:27.836Z,14.30
2018-09-17T02:13:24.491Z,14.33
2018-09-17T02:18:19.955Z,14.32
2018-09-17T02:23:15.745Z,14.36
2018-09-17T02:28:11.501Z,14.17
2018-09-17T02:33:07.306Z,14.00
2018-09-17T02:38:03.217Z,13.81
2018-09-17T02:42:58.957Z,13.63
2018-09-17T02:47:54.669Z,13.46
2018-09-17T02:52:51.328Z,13.53
2018-09-17T02:57:46.983Z,13.30
2018-09-17T03:02:42.574Z,13.27
2018-09-17T03:07:38.240Z,13.33
2018-09-17T03:12:33.993Z,13.37
2018-09-17T03:17:29.805Z,13.42
2018-09-17T03:22:26.564Z,13.30
2018-09-17T03:27:21.793Z,13.13
2018-09-17T03:32:17.642Z,13.15
2018-09-17T03:37:14.453Z,13.33
2018-09-17T03:42:09.601Z,13.38
2018-09-17T03:47:05.246Z,13.33
2018-09-17T03:52:00.740Z,13.25
2018-09-17T03:56:56.599Z,13.22
2018-09-17T04:01:52.153Z,13.39
2018-09-17T04:06:48.091Z,13.47
2018-09-17T04:11:45.110Z,13.28
2018-09-17T04:16:40.570Z,13.31
2018-09-17T04:21:37.153Z,13.35
2018-09-17T04:26:32.678Z,13.37
2018-09-17T04:31:29.534Z,13.53
2018-09-17T04:36:24.883Z,13.54
2018-09-17T04:41:20.975Z,13.59
2018-09-17T04:46:17.364Z,13.71
2018-09-17T04:51:13.492Z,13.65
2018-09-17T04:56:10.452Z,13.65
2018-09-17T05:01:05.955Z,13.65
2018-09-17T05:06:02.313Z,13.65
2018-09-17T05:10:58.016Z,13.67
2018-09-17T05:15:53.737Z,13.54
2018-09-17T05:20:49.734Z,13.71
2018-09-17T05:25:45.863Z,13.68
2018-09-17T05:30:41.790Z,13.78
2018-09-17T05:35:37.933Z,13.83
2018-09-17T05:40:33.909Z,13.85
2018-09-17T05:45:30.781Z,13.90
2018-09-17T05:50:26.650Z,14.04
2018-09-17T05:55:23.199Z,14.17
2018-09-17T06:00:19.209Z,14.29
2018-09-17T06:05:15.196Z,14.26
2018-09-17T06:10:11.392Z,14.32
2018-09-17T06:15:07.319Z,14.60
2018-09-17T06:20:04.073Z,14.70
2018-09-17T06:24:59.763Z,14.69
2018-09-17T06:29:56.628Z,14.70
2018-09-17T06:34:52.287Z,15.04
2018-09-17T06:39:47.978Z,14.94
2018-09-17T06:44:43.893Z,15.17
2018-09-17T06:49:40.781Z,15.37
2018-09-17T06:54:38.421Z,15.46
2018-09-17T06:59:34.055Z,15.77
2018-09-17T07:04:30.159Z,15.77
2018-09-17T07:09:26.369Z,15.80
2018-09-17T07:14:22.860Z,15.83
2018-09-17T07:19:19.650Z,15.97
2018-09-17T07:24:15.300Z,16.10
2018-09-17T07:29:11.166Z,16.23
2018-09-17T07:34:07.065Z,16.42
2018-09-17T07:39:03.081Z,16.60
2018-09-17T07:43:59.366Z,16.93
2018-09-17T07:48:55.451Z,17.26
2018-09-17T07:53:52.629Z,17.34
2018-09-17T07:58:49.352Z,17.57
2018-09-17T08:03:45.448Z,18.16
2018-09-17T08:08:41.930Z,18.63
2018-09-17T08:13:38.217Z,18.90
2018-09-17T08:18:35.482Z,18.89
2018-09-17T08:23:32.353Z,18.99
2018-09-17T08:28:28.085Z,18.99
2018-09-17T08:33:23.992Z,19.16
2018-09-17T08:38:19.664Z,19.16
2018-09-17T08:43:15.759Z,19.15
2018-09-17T08:48:11.430Z,19.18
2018-09-17T08:53:08.456Z,19.22
2018-09-17T08:58:04.041Z,19.36
2018-09-17T09:03:00.006Z,19.55
2018-09-17T09:07:55.807Z,19.74
2018-09-17T09:12:51.859Z,19.99
2018-09-17T09:17:49.171Z,20.22
2018-09-17T09:22:45.956Z,20.25
2018-09-17T09:27:41.627Z,20.51
2018-09-17T09:32:37.746Z,20.58
2018-09-17T09:37:34.087Z,20.80
2018-09-17T09:42:30.678Z,21.02
2018-09-17T09:47:27.357Z,21.20
2018-09-17T09:52:24.550Z,21.43
2018-09-17T09:57:20.315Z,21.57
2018-09-17T10:02:16.687Z,21.60
2018-09-17T10:07:12.894Z,21.69
2018-09-17T10:12:08.960Z,21.72
2018-09-17T10:17:04.883Z,21.92
2018-09-17T10:22:00.908Z,22.08
2018-09-17T10:26:57.023Z,22.30
2018-09-17T10:31:54.391Z,22.35
2018-09-17T10:36:50.172Z,22.50
2018-09-17T10:41:46.259Z,22.72
2018-09-17T10:46:42.243Z,22.88
2018-09-17T10:51:38.487Z,23.40
2018-09-17T10:56:34.678Z,23.66
2018-09-17T11:01:31.751Z,23.86
2018-09-17T11:06:29.157Z,23.93
2018-09-17T11:11:25.992Z,24.51
2018-09-17T11:16:23.722Z,24.78
2018-09-17T11:21:21.139Z,25.03
2018-09-17T11:26:17.410Z,25.33
2018-09-17T11:31:13.883Z,25.33
2018-09-17T11:36:10.243Z,25.40
2018-09-17T11:41:06.522Z,25.80
2018-09-17T11:46:02.886Z,26.03
2018-09-17T11:50:59.110Z,25.95
2018-09-17T11:55:54.648Z,25.54
2018-09-17T12:00:50.268Z,25.35
2018-09-17T12:05:47.025Z,25.46
2018-09-17T12:10:42.865Z,25.69
2018-09-17T12:15:38.446Z,25.38
2018-09-17T12:20:33.697Z,25.28
2018-09-17T12:25:30.012Z,25.03
2018-09-17T12:30:25.211Z,24.53
2018-09-17T12:35:20.793Z,24.53
2018-09-17T12:40:16.444Z,24.47
2018-09-17T12:45:11.998Z,24.40
2018-09-17T12:50:08.676Z,24.36
2018-09-17T12:55:04.058Z,24.26
2018-09-17T13:00:00.804Z,24.24
2018-09-17T13:04:57.404Z,24.26
2018-09-17T13:09:53.425Z,24.38
2018-09-17T13:14:49.299Z,24.61
2018-09-17T13:19:45.329Z,24.69
2018-09-17T13:24:41.323Z,24.57
2018-09-17T13:29:37.270Z,24.65
2018-09-17T13:34:33.295Z,24.48
2018-09-17T13:39:29.128Z,24.40
2018-09-17T13:44:24.863Z,24.45
2018-09-17T13:49:21.833Z,24.61
2018-09-17T13:54:17.518Z,24.65
2018-09-17T13:59:13.600Z,24.54
2018-09-17T14:04:09.531Z,24.54
2018-09-17T14:09:05.683Z,24.73
2018-09-17T14:14:01.693Z,24.78
2018-09-17T14:18:57.764Z,24.80
2018-09-17T14:23:54.219Z,24.86
2018-09-17T14:28:50.065Z,24.89
2018-09-17T14:33:47.500Z,24.85
2018-09-17T14:38:44.597Z,24.93
2018-09-17T14:43:40.411Z,24.93
2018-09-17T14:48:36.794Z,24.93
2018-09-17T14:53:32.819Z,25.07
2018-09-17T14:58:29.988Z,25.03
2018-09-17T15:03:25.867Z,24.98
2018-09-17T15:08:21.829Z,25.06
2018-09-17T15:13:17.845Z,25.01
2018-09-17T15:18:14.040Z,25.11
2018-09-17T15:23:09.888Z,25.01
2018-09-17T15:28:06.856Z,24.89
2018-09-17T15:33:02.421Z,24.76
2018-09-17T15:37:58.265Z,24.63
2018-09-17T15:42:54.122Z,24.65
2018-09-17T15:47:49.949Z,24.60
2018-09-17T15:52:45.815Z,24.53
2018-09-17T15:57:41.771Z,24.58
2018-09-17T16:02:37.893Z,24.63
2018-09-17T16:07:35.308Z,24.51
2018-09-17T16:12:30.960Z,24.33
2018-09-17T16:17:27.913Z,24.29
2018-09-17T16:22:23.621Z,24.11
2018-09-17T16:27:19.447Z,24.05
2018-09-17T16:32:15.487Z,24.06
2018-09-17T16:37:11.536Z,23.91
2018-09-17T16:42:08.498Z,23.81
2018-09-17T16:47:04.039Z,23.63
2018-09-17T16:51:59.440Z,23.58
2018-09-17T16:56:55.330Z,23.37
2018-09-17T17:01:51.121Z,23.25
2018-09-17T17:06:46.853Z,23.08
2018-09-17T17:11:43.933Z,22.78
2018-09-17T17:16:40.053Z,22.59
2018-09-17T17:21:35.496Z,22.45
2018-09-17T17:26:31.438Z,22.23
2018-09-17T17:31:27.414Z,22.11
2018-09-17T17:36:23.166Z,21.93
2018-09-17T17:41:19.919Z,21.73
2018-09-17T17:46:16.206Z,21.51
2018-09-17T17:51:12.027Z,21.33
2018-09-17T17:56:07.800Z,21.07
2018-09-17T18:01:04.886Z,20.96
2018-09-17T18:06:00.440Z,20.84
2018-09-17T18:10:56.242Z,20.67
2018-09-17T18:15:52.997Z,20.55
2018-09-17T18:20:49.056Z,20.36
2018-09-17T18:25:45.464Z,20.24
2018-09-17T18:30:42.531Z,20.18
2018-09-17T18:35:38.357Z,20.04
2018-09-17T18:40:35.022Z,19.99
2018-09-17T18:45:30.676Z,19.91
2018-09-17T18:50:27.537Z,19.74
2018-09-17T18:55:24.062Z,19.66
2018-09-17T19:00:19.743Z,19.54
2018-09-17T19:05:16.521Z,19.52
2018-09-17T19:10:11.940Z,19.33
2018-09-17T19:15:07.889Z,19.31
2018-09-17T19:20:05.281Z,19.18
2018-09-17T19:25:01.041Z,19.12
2018-09-17T19:29:57.038Z,18.99
2018-09-17T19:34:52.702Z,18.95
2018-09-17T19:39:49.438Z,18.96
2018-09-17T19:44:44.986Z,18.92
2018-09-17T19:49:40.871Z,18.88
2018-09-17T19:54:38.368Z,18.78
2018-09-17T19:59:34.192Z,18.70
2018-09-17T20:04:29.637Z,18.62
2018-09-17T20:09:25.375Z,18.62
2018-09-17T20:14:21.012Z,18.65
2018-09-17T20:19:16.834Z,18.59
2018-09-17T20:24:12.433Z,18.60
2018-09-17T20:29:08.668Z,18.53
2018-09-17T20:34:04.579Z,18.52
2018-09-17T20:39:00.336Z,18.49
2018-09-17T20:43:56.275Z,18.40
2018-09-17T20:48:52.017Z,18.29
2018-09-17T20:53:47.867Z,18.19
2018-09-17T20:58:44.657Z,18.13
2018-09-17T21:03:40.448Z,18.11
2018-09-17T21:08:36.175Z,17.97
2018-09-17T21:13:32.971Z,17.68
2018-09-17T21:18:29.359Z,17.59
2018-09-17T21:23:26.166Z,17.67
2018-09-17T21:28:21.679Z,17.51
2018-09-17T21:33:18.189Z,17.59
2018-09-17T21:38:14.133Z,17.63
2018-09-17T21:43:10.186Z,17.76
2018-09-17T21:48:06.073Z,17.87
2018-09-17T21:53:03.047Z,17.95
2018-09-17T21:57:58.638Z,17.95
2018-09-17T22:02:54.519Z,17.98
2018-09-17T22:07:51.748Z,17.87
2018-09-17T22:12:47.726Z,17.94
2018-09-17T22:17:43.666Z,17.90
2018-09-17T22:22:40.591Z,17.92
2018-09-17T22:27:36.314Z,17.85
2018-09-17T22:32:32.075Z,17.85
2018-09-17T22:37:28.069Z,17.87
2018-09-17T22:42:23.540Z,17.80
2018-09-17T22:47:19.439Z,17.74
2018-09-17T22:52:15.229Z,17.68
2018-09-17T22:57:11.183Z,17.63
2018-09-17T23:02:07.093Z,17.68
2018-09-17T23:07:03.901Z,17.63
2018-09-17T23:11:59.874Z,17.65
2018-09-17T23:16:55.511Z,17.59
2018-09-17T23:21:51.421Z,17.67
2018-09-17T23:26:47.199Z,17.63
2018-09-17T23:31:43.122Z,17.63
2018-09-17T23:36:39.929Z,17.51
2018-09-17T23:41:35.161Z,17.52
2018-09-17T23:46:31.228Z,17.49
2018-09-17T23:51:28.028Z,17.42
2018-09-17T23:56:24.312Z,17.41
